createdAt,value
2018-12-11T15:51:49.333Z,6932
2018-12-11T15:52:53.997Z,6576
2018-12-11T15:54:19.045Z,6628
2018-12-11T15:55:23.519Z,7016
2018-12-11T15:56:27.995Z,8432
2018-12-11T15:57:32.573Z,10840
2018-12-11T15:58:36.990Z,11620
2018-12-11T15:59:42.419Z,11776
2018-12-11T16:00:47.625Z,11388
2018-12-11T16:01:52.237Z,10420
2018-12-11T16:02:57.371Z,9436
2018-12-11T16:04:02.044Z,9436
2018-12-11T16:05:06.698Z,9260
2018-12-11T16:06:13.229Z,9888
2018-12-11T16:07:17.653Z,9968
2018-12-11T16:08:22.737Z,10360
2018-12-11T16:09:27.935Z,11924
2018-12-11T16:10:32.473Z,5308
2018-12-11T16:11:37.175Z,5824
2018-12-11T16:12:43.300Z,5388
2018-12-11T16:13:47.579Z,5028
2018-12-11T16:14:51.741Z,4236
2018-12-11T16:15:56.018Z,3880
2018-12-11T16:17:00.395Z,3708
2018-12-11T16:18:04.636Z,3584
2018-12-11T16:19:08.952Z,3436
2018-12-11T16:20:13.296Z,3316
2018-12-11T16:21:17.624Z,3240
2018-12-11T16:22:22.730Z,3312
2018-12-11T16:23:28.042Z,3564
2018-12-11T16:24:32.863Z,3620
2018-12-11T16:25:37.526Z,3668
2018-12-11T16:26:41.790Z,3572
2018-12-11T16:27:46.102Z,3564
2018-12-11T16:28:50.296Z,3348
2018-12-11T16:29:54.678Z,3140
2018-12-11T16:30:58.908Z,3008
2018-12-11T16:32:03.886Z,2900
2018-12-11T16:33:08.280Z,2800
2018-12-11T16:34:12.445Z,2772
2018-12-11T16:35:16.680Z,2812
2018-12-11T16:36:20.804Z,2784
2018-12-11T16:37:24.998Z,2764
2018-12-11T16:38:29.144Z,2800
2018-12-11T16:39:35.312Z,2792
2018-12-11T16:40:39.885Z,2800
2018-12-11T16:41:44.290Z,2816
2018-12-11T16:42:48.423Z,2832
2018-12-11T16:43:53.839Z,2872
2018-12-11T16:44:57.597Z,2940
2018-12-11T16:46:01.821Z,3052
2018-12-11T16:47:05.997Z,3072
2018-12-11T16:48:10.301Z,3012
2018-12-11T16:49:14.626Z,3012
2018-12-11T16:50:18.811Z,3020
2018-12-11T16:51:23.160Z,3008
2018-12-11T16:52:27.364Z,3008
2018-12-11T16:53:32.366Z,3044
2018-12-11T16:54:36.534Z,3332
2018-12-11T16:55:40.784Z,3208
2018-12-11T16:56:45.003Z,3160
2018-12-11T16:57:49.205Z,3092
2018-12-11T16:58:53.562Z,3096
2018-12-11T16:59:57.773Z,3016
2018-12-11T17:01:02.891Z,2872
2018-12-11T17:02:07.224Z,2828
2018-12-11T17:03:11.432Z,2832
2018-12-11T17:04:15.645Z,2856
2018-12-11T17:05:19.927Z,2900
2018-12-11T17:06:24.263Z,2912
2018-12-11T17:07:28.496Z,2980
2018-12-11T17:08:32.723Z,2980
2018-12-11T17:09:36.897Z,2992
2018-12-11T17:10:41.054Z,3060
2018-12-11T17:11:45.891Z,3072
2018-12-11T17:12:50.070Z,3112
2018-12-11T17:13:54.282Z,3140
2018-12-11T17:14:58.528Z,3172
2018-12-11T17:16:02.714Z,3284
2018-12-11T17:17:06.990Z,3392
2018-12-11T17:18:11.238Z,3508
2018-12-11T17:19:15.461Z,3432
2018-12-11T17:20:19.740Z,3392
2018-12-11T17:21:23.932Z,3372
2018-12-11T17:22:28.227Z,3384
2018-12-11T17:23:32.431Z,3460
2018-12-11T17:24:36.623Z,3564
2018-12-11T17:25:41.008Z,3636
2018-12-11T17:26:45.256Z,3676
2018-12-11T17:27:49.529Z,3744
2018-12-11T17:28:53.748Z,3820
2018-12-11T17:29:57.980Z,3840
2018-12-11T17:31:02.201Z,3884
2018-12-11T17:32:06.501Z,3964
2018-12-11T17:33:10.754Z,4148
2018-12-11T17:34:14.994Z,4328
2018-12-11T17:35:19.844Z,4552
2018-12-11T17:36:24.040Z,4772
2018-12-11T17:37:28.345Z,4888
2018-12-11T17:38:32.699Z,4932
2018-12-11T17:39:36.886Z,5112
2018-12-11T17:40:41.038Z,5104
2018-12-11T17:41:45.201Z,5212
2018-12-11T17:42:49.378Z,5316
2018-12-11T17:43:53.671Z,5688
2018-12-11T17:44:57.937Z,6292
2018-12-11T17:46:02.172Z,7092
2018-12-11T17:47:06.386Z,8228
2018-12-11T17:48:10.588Z,8736
2018-12-11T17:49:14.738Z,8928
2018-12-11T17:50:18.951Z,8524
2018-12-11T17:51:23.139Z,7848
2018-12-11T17:52:27.387Z,7168
2018-12-11T17:53:31.499Z,6504
2018-12-11T17:54:35.689Z,6412
2018-12-11T17:55:40.404Z,6452
2018-12-11T17:56:44.568Z,6272
2018-12-11T17:57:48.771Z,6332
2018-12-11T17:58:53.567Z,6876
2018-12-11T17:59:57.746Z,7412
2018-12-11T18:01:01.928Z,7816
2018-12-11T18:02:06.147Z,7388
2018-12-11T18:03:10.370Z,6984
2018-12-11T18:04:14.687Z,7000
2018-12-11T18:05:18.973Z,7100
2018-12-11T18:06:23.258Z,8080
2018-12-11T18:07:27.545Z,9100
2018-12-11T18:08:31.889Z,10224
2018-12-11T18:09:36.090Z,15304
2018-12-11T18:10:40.337Z,18304
2018-12-11T18:11:44.651Z,16608
2018-12-11T18:12:48.799Z,11804
2018-12-11T18:13:53.024Z,10760
2018-12-11T18:14:57.933Z,9496
2018-12-11T18:16:01.668Z,8964
2018-12-11T18:17:05.821Z,14356
2018-12-11T18:18:10.047Z,16864
2018-12-11T18:19:14.228Z,17088
2018-12-11T18:20:18.395Z,16384
2018-12-11T18:21:22.671Z,13400
2018-12-11T18:22:26.828Z,11188
2018-12-11T18:23:30.980Z,8852
2018-12-11T18:24:35.309Z,15360
2018-12-11T18:25:39.756Z,16384
2018-12-11T18:26:44.056Z,13432
2018-12-11T18:27:48.258Z,10880
2018-12-11T18:28:52.459Z,8168
2018-12-11T18:29:56.676Z,7204
2018-12-11T18:31:01.678Z,7268
2018-12-11T18:32:05.053Z,7732
2018-12-11T18:33:09.813Z,7428
2018-12-11T18:34:14.020Z,6696
2018-12-11T18:35:18.317Z,5688
2018-12-11T18:36:22.625Z,5568
2018-12-11T18:37:26.824Z,6124
2018-12-11T18:38:31.000Z,6412
2018-12-11T18:39:35.177Z,6368
2018-12-11T18:40:39.377Z,6020
2018-12-11T18:41:43.573Z,5896
2018-12-11T18:42:47.735Z,5592
2018-12-11T18:43:51.907Z,5444
2018-12-11T18:44:56.102Z,5712
2018-12-11T18:46:00.267Z,5820
2018-12-11T18:47:05.421Z,5636
2018-12-11T18:48:09.610Z,5712
2018-12-11T18:49:13.924Z,5872
2018-12-11T18:50:21.361Z,5788
2018-12-11T18:51:22.459Z,5360
2018-12-11T18:52:26.694Z,5084
2018-12-11T18:53:30.933Z,5060
2018-12-11T18:54:35.250Z,5656
2018-12-11T18:55:39.471Z,8536
2018-12-11T18:56:43.661Z,7472
2018-12-11T18:57:47.882Z,5152
2018-12-11T18:58:52.048Z,5036
2018-12-11T18:59:56.336Z,5280
2018-12-11T19:01:00.522Z,5544
2018-12-11T19:02:04.808Z,5740
2018-12-11T19:03:08.997Z,5784
2018-12-11T19:04:13.143Z,6040
2018-12-11T19:05:17.303Z,6012
2018-12-11T19:06:21.475Z,5804
2018-12-11T19:07:25.870Z,5368
2018-12-11T19:08:30.209Z,5244
2018-12-11T19:09:34.425Z,5888
2018-12-11T19:10:38.830Z,6644
2018-12-11T19:11:43.886Z,9092
2018-12-11T19:12:48.263Z,7600
2018-12-11T19:13:52.478Z,8568
2018-12-11T19:14:56.788Z,6824
2018-12-11T19:16:01.085Z,12960
2018-12-11T19:17:05.423Z,13008
2018-12-11T19:18:09.845Z,8340
2018-12-11T19:19:14.156Z,12316
2018-12-11T19:20:18.450Z,12296
2018-12-11T19:21:23.218Z,11964
2018-12-11T19:22:27.751Z,13352
2018-12-11T19:23:31.908Z,13916
2018-12-11T19:24:36.160Z,13868
2018-12-11T19:25:40.433Z,14028
2018-12-11T19:26:44.645Z,13716
2018-12-11T19:27:48.840Z,13420
2018-12-11T19:28:53.090Z,13048
2018-12-11T19:29:57.243Z,12524
2018-12-11T19:31:01.407Z,11928
2018-12-11T19:32:05.678Z,11608
2018-12-11T19:33:09.849Z,12176
2018-12-11T19:34:14.040Z,12472
2018-12-11T19:35:18.199Z,12668
2018-12-11T19:36:22.477Z,12252
2018-12-11T19:37:26.732Z,10000
2018-12-11T19:38:31.000Z,8496
2018-12-11T19:39:35.268Z,9900
2018-12-11T19:40:40.740Z,12016
2018-12-11T19:41:43.648Z,12588
2018-12-11T19:42:47.846Z,12584
2018-12-11T19:43:52.069Z,12576
2018-12-11T19:44:56.230Z,12520
2018-12-11T19:46:01.217Z,12376
2018-12-11T19:47:05.544Z,11408
2018-12-11T19:48:09.723Z,10732
2018-12-11T19:49:13.841Z,8060
2018-12-11T19:50:18.186Z,6100
2018-12-11T19:51:22.385Z,5508
2018-12-11T19:52:26.657Z,5596
2018-12-11T19:53:30.811Z,7308
2018-12-11T19:54:35.843Z,6460
2018-12-11T19:55:40.152Z,5164
2018-12-11T19:56:44.465Z,4560
2018-12-11T19:57:48.745Z,4184
2018-12-11T19:58:53.030Z,4444
2018-12-11T19:59:57.183Z,3700
2018-12-11T20:01:01.410Z,5148
2018-12-11T20:02:06.228Z,6500
2018-12-11T20:03:10.656Z,7456
2018-12-11T20:04:13.919Z,3972
2018-12-11T20:05:18.106Z,3872
2018-12-11T20:06:22.314Z,3788
2018-12-11T20:07:26.679Z,3832
2018-12-11T20:08:31.244Z,3600
2018-12-11T20:09:35.123Z,3428
2018-12-11T20:10:39.329Z,3288
2018-12-11T20:11:43.577Z,3240
2018-12-11T20:12:47.783Z,3256
2018-12-11T20:13:51.963Z,3248
2018-12-11T20:14:56.142Z,3220
2018-12-11T20:16:00.519Z,3248
2018-12-11T20:17:04.767Z,3576
2018-12-11T20:18:12.745Z,2980
2018-12-11T20:19:13.169Z,2668
2018-12-11T20:20:17.555Z,2252
2018-12-11T20:21:21.803Z,1884
2018-12-11T20:22:25.983Z,1652
2018-12-11T20:23:30.182Z,1472
2018-12-11T20:24:34.475Z,1340
2018-12-11T20:25:38.865Z,1232
2018-12-11T20:26:43.040Z,1176
2018-12-11T20:27:47.233Z,1096
2018-12-11T20:28:51.374Z,1028
2018-12-11T20:29:55.562Z,1016
2018-12-11T20:30:59.748Z,1016
2018-12-11T20:32:03.947Z,1028
2018-12-11T20:33:08.117Z,1016
2018-12-11T20:34:12.737Z,1016
2018-12-11T20:35:16.938Z,1028
2018-12-11T20:36:21.668Z,992
2018-12-11T20:37:26.761Z,940
2018-12-11T20:38:31.072Z,852
2018-12-11T20:39:35.350Z,768
2018-12-11T20:40:39.823Z,696
2018-12-11T20:41:43.950Z,668
2018-12-11T20:42:48.237Z,624
2018-12-11T20:43:52.508Z,580
2018-12-11T20:44:56.670Z,544
2018-12-11T20:46:00.938Z,508
2018-12-11T20:47:05.100Z,336
2018-12-11T20:48:09.298Z,312
2018-12-11T20:49:13.470Z,300
2018-12-11T20:50:17.643Z,284
2018-12-11T20:51:21.838Z,308
2018-12-11T20:52:26.023Z,244
2018-12-11T20:53:30.176Z,436
2018-12-11T20:54:34.307Z,408
2018-12-11T20:55:38.521Z,392
2018-12-11T20:56:42.756Z,372
2018-12-11T20:57:46.973Z,352
2018-12-11T20:58:51.157Z,336
2018-12-11T20:59:55.492Z,336
2018-12-11T21:00:59.825Z,324
2018-12-11T21:02:04.023Z,316
2018-12-11T21:03:08.135Z,328
2018-12-11T21:04:12.296Z,348
2018-12-11T21:05:16.473Z,356
2018-12-11T21:06:20.761Z,336
2018-12-11T21:07:25.211Z,308
2018-12-11T21:08:29.609Z,276
2018-12-11T21:09:34.174Z,256
2018-12-11T21:10:38.545Z,240
2018-12-11T21:11:43.021Z,196
2018-12-11T21:12:47.407Z,292
2018-12-11T21:13:51.987Z,312
2018-12-11T21:14:56.606Z,328
2018-12-11T21:16:01.111Z,328
2018-12-11T21:17:05.532Z,308
2018-12-11T21:18:09.931Z,256
2018-12-11T21:19:14.513Z,180
2018-12-11T21:20:19.074Z,136
2018-12-11T21:21:24.298Z,112
2018-12-11T21:22:28.645Z,100
2018-12-11T21:23:33.447Z,96
2018-12-11T21:24:38.114Z,92
2018-12-11T21:25:42.661Z,92
2018-12-11T21:26:47.561Z,88
2018-12-11T21:27:52.238Z,80
2018-12-11T21:28:56.716Z,72
2018-12-11T21:30:01.204Z,60
2018-12-11T21:31:06.297Z,52
2018-12-11T21:32:10.621Z,48
2018-12-11T21:33:16.061Z,44
2018-12-11T21:34:20.564Z,40
2018-12-11T21:35:25.344Z,36
2018-12-11T21:36:30.882Z,36
